sensor_id;sensor_type;location;lat;lon;timestamp;temperature;humidity
70300;HTU21D;57704;51.112;5.878;2023-03-01T00:01:05;2.66;56.58
70300;HTU21D;57704;51.112;5.878;2023-03-01T00:03:32;2.64;56.61
70300;HTU21D;57704;51.112;5.878;2023-03-01T00:05:59;2.62;56.69
70300;HTU21D;57704;51.112;5.878;2023-03-01T00:08:26;2.58;56.79
70300;HTU21D;57704;51.112;5.878;2023-03-01T00:11:03;2.53;56.98
70300;HTU21D;57704;51.112;5.878;2023-03-01T00:13:30;2.47;57.32
70300;HTU21D;57704;51.112;5.878;2023-03-01T00:15:56;2.44;57.57
70300;HTU21D;57704;51.112;5.878;2023-03-01T00:18:23;2.40;57.77
70300;HTU21D;57704;51.112;5.878;2023-03-01T00:20:54;2.41;57.93
70300;HTU21D;57704;51.112;5.878;2023-03-01T00:23:22;2.43;57.93
70300;HTU21D;57704;51.112;5.878;2023-03-01T00:25:48;2.40;58.13
70300;HTU21D;57704;51.112;5.878;2023-03-01T00:28:15;2.42;58.21
70300;HTU21D;57704;51.112;5.878;2023-03-01T00:30:43;2.41;58.26
70300;HTU21D;57704;51.112;5.878;2023-03-01T00:33:10;2.40;58.45
70300;HTU21D;57704;51.112;5.878;2023-03-01T00:35:36;2.35;58.72
70300;HTU21D;57704;51.112;5.878;2023-03-01T00:38:04;2.31;58.93
70300;HTU21D;57704;51.112;5.878;2023-03-01T00:40:34;2.30;59.08
70300;HTU21D;57704;51.112;5.878;2023-03-01T00:43:03;2.28;59.32
70300;HTU21D;57704;51.112;5.878;2023-03-01T00:45:30;2.24;59.46
70300;HTU21D;57704;51.112;5.878;2023-03-01T00:47:59;2.24;59.70
70300;HTU21D;57704;51.112;5.878;2023-03-01T00:50:25;2.22;59.70
70300;HTU21D;57704;51.112;5.878;2023-03-01T00:52:53;2.26;59.64
70300;HTU21D;57704;51.112;5.878;2023-03-01T00:55:20;2.26;59.54
70300;HTU21D;57704;51.112;5.878;2023-03-01T00:57:46;2.23;59.56
70300;HTU21D;57704;51.112;5.878;2023-03-01T01:00:13;2.23;59.61
70300;HTU21D;57704;51.112;5.878;2023-03-01T01:02:40;2.24;59.54
70300;HTU21D;57704;51.112;5.878;2023-03-01T01:05:07;2.23;59.41
70300;HTU21D;57704;51.112;5.878;2023-03-01T01:07:34;2.23;59.36
70300;HTU21D;57704;51.112;5.878;2023-03-01T01:10:02;2.22;59.35
70300;HTU21D;57704;51.112;5.878;2023-03-01T01:12:28;2.20;59.39
70300;HTU21D;57704;51.112;5.878;2023-03-01T01:14:56;2.14;59.44
70300;HTU21D;57704;51.112;5.878;2023-03-01T01:17:22;2.16;59.39
70300;HTU21D;57704;51.112;5.878;2023-03-01T01:19:49;2.13;59.26
70300;HTU21D;57704;51.112;5.878;2023-03-01T01:22:15;2.09;59.28
70300;HTU21D;57704;51.112;5.878;2023-03-01T01:24:43;2.07;59.28
70300;HTU21D;57704;51.112;5.878;2023-03-01T01:27:10;2.06;59.25
70300;HTU21D;57704;51.112;5.878;2023-03-01T01:29:36;2.02;59.24
70300;HTU21D;57704;51.112;5.878;2023-03-01T01:32:04;1.98;59.23
70300;HTU21D;57704;51.112;5.878;2023-03-01T01:34:30;1.94;59.18
70300;HTU21D;57704;51.112;5.878;2023-03-01T01:36:57;1.91;59.27
70300;HTU21D;57704;51.112;5.878;2023-03-01T01:39:29;1.86;59.25
70300;HTU21D;57704;51.112;5.878;2023-03-01T01:41:55;1.86;59.24
70300;HTU21D;57704;51.112;5.878;2023-03-01T01:44:27;1.86;59.22
70300;HTU21D;57704;51.112;5.878;2023-03-01T01:47:12;1.84;59.19
70300;HTU21D;57704;51.112;5.878;2023-03-01T01:49:51;1.81;59.12
70300;HTU21D;57704;51.112;5.878;2023-03-01T01:57:33;1.68;59.50
70300;HTU21D;57704;51.112;5.878;2023-03-01T02:00:07;1.65;59.51
70300;HTU21D;57704;51.112;5.878;2023-03-01T02:02:41;1.65;59.50
70300;HTU21D;57704;51.112;5.878;2023-03-01T02:07:59;1.62;59.57
70300;HTU21D;57704;51.112;5.878;2023-03-01T02:10:28;1.58;59.57
70300;HTU21D;57704;51.112;5.878;2023-03-01T02:12:56;1.54;59.63
70300;HTU21D;57704;51.112;5.878;2023-03-01T02:15:24;1.54;59.68
70300;HTU21D;57704;51.112;5.878;2023-03-01T02:17:55;1.51;59.70
70300;HTU21D;57704;51.112;5.878;2023-03-01T02:20:44;1.48;59.77
70300;HTU21D;57704;51.112;5.878;2023-03-01T02:23:13;1.42;59.80
70300;HTU21D;57704;51.112;5.878;2023-03-01T02:26:05;1.37;59.91
70300;HTU21D;57704;51.112;5.878;2023-03-01T02:28:36;1.34;60.01
70300;HTU21D;57704;51.112;5.878;2023-03-01T02:31:07;1.31;60.02
70300;HTU21D;57704;51.112;5.878;2023-03-01T02:33:57;1.26;60.18
70300;HTU21D;57704;51.112;5.878;2023-03-01T02:36:30;1.25;60.15
70300;HTU21D;57704;51.112;5.878;2023-03-01T02:39:00;1.23;60.24
70300;HTU21D;57704;51.112;5.878;2023-03-01T02:41:32;1.19;60.37
70300;HTU21D;57704;51.112;5.878;2023-03-01T02:44:02;1.16;60.39
70300;HTU21D;57704;51.112;5.878;2023-03-01T02:46:29;1.11;60.51
70300;HTU21D;57704;51.112;5.878;2023-03-01T02:48:57;1.07;60.67
70300;HTU21D;57704;51.112;5.878;2023-03-01T02:57:23;1.05;60.83
70300;HTU21D;57704;51.112;5.878;2023-03-01T02:59:57;1.03;60.90
70300;HTU21D;57704;51.112;5.878;2023-03-01T03:02:30;1.02;61.06
70300;HTU21D;57704;51.112;5.878;2023-03-01T03:05:12;1.03;61.05
70300;HTU21D;57704;51.112;5.878;2023-03-01T03:07:42;1.03;61.00
70300;HTU21D;57704;51.112;5.878;2023-03-01T03:10:16;0.98;61.09
70300;HTU21D;57704;51.112;5.878;2023-03-01T03:12:43;0.94;61.21
70300;HTU21D;57704;51.112;5.878;2023-03-01T03:15:10;0.90;61.27
70300;HTU21D;57704;51.112;5.878;2023-03-01T03:17:40;0.89;61.29
70300;HTU21D;57704;51.112;5.878;2023-03-01T03:20:10;0.82;61.51
70300;HTU21D;57704;51.112;5.878;2023-03-01T03:22:39;0.78;61.51
70300;HTU21D;57704;51.112;5.878;2023-03-01T03:25:09;0.74;61.65
70300;HTU21D;57704;51.112;5.878;2023-03-01T03:27:42;0.72;61.69
70300;HTU21D;57704;51.112;5.878;2023-03-01T03:30:13;0.71;61.76
70300;HTU21D;57704;51.112;5.878;2023-03-01T03:32:41;0.68;61.79
70300;HTU21D;57704;51.112;5.878;2023-03-01T03:35:09;0.67;61.83
70300;HTU21D;57704;51.112;5.878;2023-03-01T03:37:40;0.63;61.76
70300;HTU21D;57704;51.112;5.878;2023-03-01T03:43:02;0.55;62.02
70300;HTU21D;57704;51.112;5.878;2023-03-01T03:45:29;0.55;62.15
70300;HTU21D;57704;51.112;5.878;2023-03-01T03:47:56;0.57;62.22
70300;HTU21D;57704;51.112;5.878;2023-03-01T03:50:22;0.59;62.21
70300;HTU21D;57704;51.112;5.878;2023-03-01T03:52:49;0.60;62.26
70300;HTU21D;57704;51.112;5.878;2023-03-01T03:55:16;0.61;62.24
70300;HTU21D;57704;51.112;5.878;2023-03-01T03:57:47;0.60;62.33
70300;HTU21D;57704;51.112;5.878;2023-03-01T04:00:21;0.62;62.40
70300;HTU21D;57704;51.112;5.878;2023-03-01T04:02:54;0.59;62.50
70300;HTU21D;57704;51.112;5.878;2023-03-01T04:05:24;0.57;62.65
70300;HTU21D;57704;51.112;5.878;2023-03-01T04:07:50;0.57;62.76
70300;HTU21D;57704;51.112;5.878;2023-03-01T04:10:29;0.55;62.90
70300;HTU21D;57704;51.112;5.878;2023-03-01T04:12:57;0.55;63.03
70300;HTU21D;57704;51.112;5.878;2023-03-01T04:15:26;0.57;63.18
70300;HTU21D;57704;51.112;5.878;2023-03-01T04:17:55;0.57;63.16
70300;HTU21D;57704;51.112;5.878;2023-03-01T04:20:25;0.57;63.27
70300;HTU21D;57704;51.112;5.878;2023-03-01T04:23:01;0.55;63.36
70300;HTU21D;57704;51.112;5.878;2023-03-01T04:28:15;0.58;63.33
70300;HTU21D;57704;51.112;5.878;2023-03-01T04:30:42;0.57;63.30
70300;HTU21D;57704;51.112;5.878;2023-03-01T04:33:10;0.57;63.28
70300;HTU21D;57704;51.112;5.878;2023-03-01T04:35:38;0.54;63.38
70300;HTU21D;57704;51.112;5.878;2023-03-01T04:38:05;0.49;63.53
70300;HTU21D;57704;51.112;5.878;2023-03-01T04:40:32;0.49;63.58
70300;HTU21D;57704;51.112;5.878;2023-03-01T04:42:59;0.50;63.59
70300;HTU21D;57704;51.112;5.878;2023-03-01T04:45:26;0.51;63.54
70300;HTU21D;57704;51.112;5.878;2023-03-01T04:47:52;0.49;63.48
70300;HTU21D;57704;51.112;5.878;2023-03-01T04:50:20;0.51;63.50
70300;HTU21D;57704;51.112;5.878;2023-03-01T04:52:47;0.49;63.50
70300;HTU21D;57704;51.112;5.878;2023-03-01T04:55:14;0.49;63.54
70300;HTU21D;57704;51.112;5.878;2023-03-01T04:57:41;0.49;63.59
70300;HTU21D;57704;51.112;5.878;2023-03-01T05:00:11;0.48;63.61
70300;HTU21D;57704;51.112;5.878;2023-03-01T05:02:56;0.49;63.59
70300;HTU21D;57704;51.112;5.878;2023-03-01T05:05:34;0.45;63.80
70300;HTU21D;57704;51.112;5.878;2023-03-01T05:08:04;0.39;64.21
70300;HTU21D;57704;51.112;5.878;2023-03-01T05:10:32;0.35;64.40
70300;HTU21D;57704;51.112;5.878;2023-03-01T05:13:02;0.35;64.53
70300;HTU21D;57704;51.112;5.878;2023-03-01T05:15:30;0.33;64.63
70300;HTU21D;57704;51.112;5.878;2023-03-01T05:17:59;0.34;64.79
70300;HTU21D;57704;51.112;5.878;2023-03-01T05:20:27;0.32;64.80
70300;HTU21D;57704;51.112;5.878;2023-03-01T05:22:59;0.29;64.98
70300;HTU21D;57704;51.112;5.878;2023-03-01T05:25:26;0.28;65.05
70300;HTU21D;57704;51.112;5.878;2023-03-01T05:27:53;0.29;65.14
70300;HTU21D;57704;51.112;5.878;2023-03-01T05:30:19;0.32;65.09
70300;HTU21D;57704;51.112;5.878;2023-03-01T05:32:48;0.31;65.06
70300;HTU21D;57704;51.112;5.878;2023-03-01T05:35:17;0.33;65.06
70300;HTU21D;57704;51.112;5.878;2023-03-01T05:37:45;0.33;65.06
70300;HTU21D;57704;51.112;5.878;2023-03-01T05:40:15;0.31;65.04
70300;HTU21D;57704;51.112;5.878;2023-03-01T05:42:55;0.27;65.14
70300;HTU21D;57704;51.112;5.878;2023-03-01T05:45:25;0.24;65.21
70300;HTU21D;57704;51.112;5.878;2023-03-01T05:47:51;0.22;65.30
70300;HTU21D;57704;51.112;5.878;2023-03-01T05:50:19;0.24;65.19
70300;HTU21D;57704;51.112;5.878;2023-03-01T05:52:51;0.23;65.21
70300;HTU21D;57704;51.112;5.878;2023-03-01T05:55:19;0.25;65.15
70300;HTU21D;57704;51.112;5.878;2023-03-01T05:57:47;0.28;65.07
70300;HTU21D;57704;51.112;5.878;2023-03-01T06:00:15;0.25;65.00
70300;HTU21D;57704;51.112;5.878;2023-03-01T06:02:42;0.27;65.00
70300;HTU21D;57704;51.112;5.878;2023-03-01T06:05:13;0.27;64.95
70300;HTU21D;57704;51.112;5.878;2023-03-01T06:07:41;0.24;64.90
70300;HTU21D;57704;51.112;5.878;2023-03-01T06:10:09;0.23;64.85
70300;HTU21D;57704;51.112;5.878;2023-03-01T06:12:37;0.24;64.82
70300;HTU21D;57704;51.112;5.878;2023-03-01T06:15:05;0.21;64.69
70300;HTU21D;57704;51.112;5.878;2023-03-01T06:17:34;0.18;64.69
70300;HTU21D;57704;51.112;5.878;2023-03-01T06:20:04;0.17;64.70
70300;HTU21D;57704;51.112;5.878;2023-03-01T06:22:31;0.16;64.66
70300;HTU21D;57704;51.112;5.878;2023-03-01T06:24:57;0.18;64.65
70300;HTU21D;57704;51.112;5.878;2023-03-01T06:27:24;0.17;64.62
70300;HTU21D;57704;51.112;5.878;2023-03-01T06:29:50;0.16;64.59
70300;HTU21D;57704;51.112;5.878;2023-03-01T06:32:16;0.17;64.53
70300;HTU21D;57704;51.112;5.878;2023-03-01T06:34:42;0.16;64.48
70300;HTU21D;57704;51.112;5.878;2023-03-01T06:37:08;0.16;64.53
70300;HTU21D;57704;51.112;5.878;2023-03-01T06:39:34;0.16;64.50
70300;HTU21D;57704;51.112;5.878;2023-03-01T06:42:01;0.15;64.57
70300;HTU21D;57704;51.112;5.878;2023-03-01T06:44:27;0.18;64.66
70300;HTU21D;57704;51.112;5.878;2023-03-01T06:46:53;0.20;64.55
70300;HTU21D;57704;51.112;5.878;2023-03-01T06:49:20;0.24;64.52
70300;HTU21D;57704;51.112;5.878;2023-03-01T06:51:47;0.28;64.51
70300;HTU21D;57704;51.112;5.878;2023-03-01T06:54:13;0.35;64.43
70300;HTU21D;57704;51.112;5.878;2023-03-01T06:56:40;0.37;64.29
70300;HTU21D;57704;51.112;5.878;2023-03-01T06:59:06;0.40;64.24
70300;HTU21D;57704;51.112;5.878;2023-03-01T07:01:32;0.42;64.74
70300;HTU21D;57704;51.112;5.878;2023-03-01T07:03:58;0.59;66.85
70300;HTU21D;57704;51.112;5.878;2023-03-01T07:06:24;0.90;69.87
70300;HTU21D;57704;51.112;5.878;2023-03-01T07:08:51;1.43;70.65
70300;HTU21D;57704;51.112;5.878;2023-03-01T07:11:17;2.37;69.16
70300;HTU21D;57704;51.112;5.878;2023-03-01T07:13:43;3.49;65.18
70300;HTU21D;57704;51.112;5.878;2023-03-01T07:16:09;4.50;62.24
70300;HTU21D;57704;51.112;5.878;2023-03-01T07:18:35;5.54;59.10
70300;HTU21D;57704;51.112;5.878;2023-03-01T07:21:07;6.46;55.74
70300;HTU21D;57704;51.112;5.878;2023-03-01T07:23:33;7.29;54.09
70300;HTU21D;57704;51.112;5.878;2023-03-01T07:26:00;8.15;52.62
70300;HTU21D;57704;51.112;5.878;2023-03-01T07:28:26;8.92;49.92
70300;HTU21D;57704;51.112;5.878;2023-03-01T07:30:53;9.69;47.92
70300;HTU21D;57704;51.112;5.878;2023-03-01T07:33:20;10.33;45.98
70300;HTU21D;57704;51.112;5.878;2023-03-01T07:35:46;10.54;44.61
70300;HTU21D;57704;51.112;5.878;2023-03-01T07:38:12;10.99;43.64
70300;HTU21D;57704;51.112;5.878;2023-03-01T07:40:39;11.39;42.50
70300;HTU21D;57704;51.112;5.878;2023-03-01T07:43:05;11.67;42.33
70300;HTU21D;57704;51.112;5.878;2023-03-01T07:45:31;12.15;41.23
70300;HTU21D;57704;51.112;5.878;2023-03-01T07:47:57;12.69;40.69
70300;HTU21D;57704;51.112;5.878;2023-03-01T07:50:23;13.34;39.17
70300;HTU21D;57704;51.112;5.878;2023-03-01T07:52:49;13.67;37.17
70300;HTU21D;57704;51.112;5.878;2023-03-01T07:55:16;13.77;37.37
70300;HTU21D;57704;51.112;5.878;2023-03-01T07:57:42;14.24;36.83
70300;HTU21D;57704;51.112;5.878;2023-03-01T08:00:11;14.42;35.80
70300;HTU21D;57704;51.112;5.878;2023-03-01T08:02:40;14.79;35.56
70300;HTU21D;57704;51.112;5.878;2023-03-01T08:05:08;15.34;34.77
70300;HTU21D;57704;51.112;5.878;2023-03-01T08:07:35;15.83;32.93
70300;HTU21D;57704;51.112;5.878;2023-03-01T08:10:02;15.91;32.38
70300;HTU21D;57704;51.112;5.878;2023-03-01T08:12:28;16.11;32.58
70300;HTU21D;57704;51.112;5.878;2023-03-01T08:14:55;16.55;32.20
70300;HTU21D;57704;51.112;5.878;2023-03-01T08:17:21;16.61;30.60
70300;HTU21D;57704;51.112;5.878;2023-03-01T08:19:47;16.49;31.20
70300;HTU21D;57704;51.112;5.878;2023-03-01T08:22:13;16.69;31.03
70300;HTU21D;57704;51.112;5.878;2023-03-01T08:24:39;17.17;30.35
70300;HTU21D;57704;51.112;5.878;2023-03-01T08:27:05;17.34;29.56
70300;HTU21D;57704;51.112;5.878;2023-03-01T08:29:33;17.54;29.19
70300;HTU21D;57704;51.112;5.878;2023-03-01T08:31:59;17.63;29.31
70300;HTU21D;57704;51.112;5.878;2023-03-01T08:34:26;18.02;28.57
70300;HTU21D;57704;51.112;5.878;2023-03-01T08:36:52;18.22;28.27
70300;HTU21D;57704;51.112;5.878;2023-03-01T08:39:20;18.52;27.99
70300;HTU21D;57704;51.112;5.878;2023-03-01T08:41:46;18.61;27.01
70300;HTU21D;57704;51.112;5.878;2023-03-01T08:44:15;18.23;27.44
70300;HTU21D;57704;51.112;5.878;2023-03-01T08:46:43;18.14;27.63
70300;HTU21D;57704;51.112;5.878;2023-03-01T08:49:17;18.33;27.72
70300;HTU21D;57704;51.112;5.878;2023-03-01T08:51:45;18.19;26.58
70300;HTU21D;57704;51.112;5.878;2023-03-01T08:54:14;17.95;27.23
70300;HTU21D;57704;51.112;5.878;2023-03-01T08:56:41;18.07;27.25
70300;HTU21D;57704;51.112;5.878;2023-03-01T08:59:07;18.12;26.89
70300;HTU21D;57704;51.112;5.878;2023-03-01T09:01:35;17.95;26.91
70300;HTU21D;57704;51.112;5.878;2023-03-01T09:04:03;17.63;27.20
70300;HTU21D;57704;51.112;5.878;2023-03-01T09:06:31;17.52;27.63
70300;HTU21D;57704;51.112;5.878;2023-03-01T09:08:59;17.62;27.10
70300;HTU21D;57704;51.112;5.878;2023-03-01T09:11:25;17.43;27.21
70300;HTU21D;57704;51.112;5.878;2023-03-01T09:13:52;17.34;27.65
70300;HTU21D;57704;51.112;5.878;2023-03-01T09:16:20;17.17;27.56
70300;HTU21D;57704;51.112;5.878;2023-03-01T09:18:51;17.07;27.61
70300;HTU21D;57704;51.112;5.878;2023-03-01T09:21:21;17.00;27.26
70300;HTU21D;57704;51.112;5.878;2023-03-01T09:23:49;16.76;27.51
70300;HTU21D;57704;51.112;5.878;2023-03-01T09:26:18;16.56;27.97
70300;HTU21D;57704;51.112;5.878;2023-03-01T09:28:46;16.36;27.55
70300;HTU21D;57704;51.112;5.878;2023-03-01T09:31:14;16.14;28.02
70300;HTU21D;57704;51.112;5.878;2023-03-01T09:33:41;16.00;28.22
70300;HTU21D;57704;51.112;5.878;2023-03-01T09:36:17;15.93;28.70
70300;HTU21D;57704;51.112;5.878;2023-03-01T09:38:44;16.02;28.14
70300;HTU21D;57704;51.112;5.878;2023-03-01T09:41:36;15.84;28.52
70300;HTU21D;57704;51.112;5.878;2023-03-01T09:46:48;15.66;28.75
70300;HTU21D;57704;51.112;5.878;2023-03-01T09:49:27;15.82;28.56
70300;HTU21D;57704;51.112;5.878;2023-03-01T09:52:16;16.00;27.73
70300;HTU21D;57704;51.112;5.878;2023-03-01T09:54:51;15.22;27.84
70300;HTU21D;57704;51.112;5.878;2023-03-01T09:59:58;14.59;29.25
70300;HTU21D;57704;51.112;5.878;2023-03-01T10:05:10;14.27;28.91
70300;HTU21D;57704;51.112;5.878;2023-03-01T10:10:35;13.91;29.96
70300;HTU21D;57704;51.112;5.878;2023-03-01T10:13:20;13.65;30.67
70300;HTU21D;57704;51.112;5.878;2023-03-01T10:15:52;13.64;31.03
70300;HTU21D;57704;51.112;5.878;2023-03-01T10:18:28;13.94;30.48
70300;HTU21D;57704;51.112;5.878;2023-03-01T10:21:02;14.03;30.43
70300;HTU21D;57704;51.112;5.878;2023-03-01T10:23:34;14.24;30.42
70300;HTU21D;57704;51.112;5.878;2023-03-01T10:31:26;13.24;31.16
70300;HTU21D;57704;51.112;5.878;2023-03-01T10:33:55;13.41;31.38
70300;HTU21D;57704;51.112;5.878;2023-03-01T10:36:23;13.65;30.67
70300;HTU21D;57704;51.112;5.878;2023-03-01T10:38:56;13.61;30.77
70300;HTU21D;57704;51.112;5.878;2023-03-01T10:41:26;13.38;30.67
70300;HTU21D;57704;51.112;5.878;2023-03-01T10:43:56;13.17;31.26
70300;HTU21D;57704;51.112;5.878;2023-03-01T10:46:34;13.43;30.78
70300;HTU21D;57704;51.112;5.878;2023-03-01T10:49:18;13.39;30.86
70300;HTU21D;57704;51.112;5.878;2023-03-01T10:51:48;13.18;30.64
70300;HTU21D;57704;51.112;5.878;2023-03-01T10:54:35;13.02;30.83
70300;HTU21D;57704;51.112;5.878;2023-03-01T10:57:05;13.03;30.92
70300;HTU21D;57704;51.112;5.878;2023-03-01T10:59:33;12.91;30.76
70300;HTU21D;57704;51.112;5.878;2023-03-01T11:04:36;13.05;31.30
70300;HTU21D;57704;51.112;5.878;2023-03-01T11:07:02;12.85;31.20
70300;HTU21D;57704;51.112;5.878;2023-03-01T11:09:33;12.65;32.04
70300;HTU21D;57704;51.112;5.878;2023-03-01T11:12:14;12.78;32.13
70300;HTU21D;57704;51.112;5.878;2023-03-01T11:14:50;12.87;31.25
70300;HTU21D;57704;51.112;5.878;2023-03-01T11:17:29;12.71;31.54
70300;HTU21D;57704;51.112;5.878;2023-03-01T11:20:20;12.76;31.85
70300;HTU21D;57704;51.112;5.878;2023-03-01T11:23:04;12.92;31.82
70300;HTU21D;57704;51.112;5.878;2023-03-01T11:25:37;13.17;31.77
70300;HTU21D;57704;51.112;5.878;2023-03-01T11:28:09;13.32;31.25
70300;HTU21D;57704;51.112;5.878;2023-03-01T11:38:42;13.80;30.83
70300;HTU21D;57704;51.112;5.878;2023-03-01T11:41:16;13.86;30.39
70300;HTU21D;57704;51.112;5.878;2023-03-01T11:51:41;14.42;29.60
70300;HTU21D;57704;51.112;5.878;2023-03-01T11:57:20;14.80;28.78
70300;HTU21D;57704;51.112;5.878;2023-03-01T12:08:17;14.88;27.88
70300;HTU21D;57704;51.112;5.878;2023-03-01T12:18:32;15.44;27.62
70300;HTU21D;57704;51.112;5.878;2023-03-01T12:21:27;15.57;27.18
70300;HTU21D;57704;51.112;5.878;2023-03-01T12:32:55;16.67;26.07
70300;HTU21D;57704;51.112;5.878;2023-03-01T12:38:41;16.54;25.72
70300;HTU21D;57704;51.112;5.878;2023-03-01T12:49:19;17.11;24.64
70300;HTU21D;57704;51.112;5.878;2023-03-01T12:51:59;16.94;24.87
70300;HTU21D;57704;51.112;5.878;2023-03-01T12:54:29;16.92;24.61
70300;HTU21D;57704;51.112;5.878;2023-03-01T13:05:22;16.86;24.96
70300;HTU21D;57704;51.112;5.878;2023-03-01T13:07:55;17.01;25.16
70300;HTU21D;57704;51.112;5.878;2023-03-01T13:10:58;17.10;25.21
70300;HTU21D;57704;51.112;5.878;2023-03-01T13:13:28;16.71;25.14
70300;HTU21D;57704;51.112;5.878;2023-03-01T13:15:56;16.67;25.66
70300;HTU21D;57704;51.112;5.878;2023-03-01T13:20:55;16.84;25.43
70300;HTU21D;57704;51.112;5.878;2023-03-01T13:33:56;16.21;25.28
70300;HTU21D;57704;51.112;5.878;2023-03-01T13:39:02;15.77;26.32
70300;HTU21D;57704;51.112;5.878;2023-03-01T13:46:50;15.55;26.07
70300;HTU21D;57704;51.112;5.878;2023-03-01T13:49:21;15.38;25.86
70300;HTU21D;57704;51.112;5.878;2023-03-01T13:51:50;15.22;26.14
70300;HTU21D;57704;51.112;5.878;2023-03-01T13:54:26;15.13;25.89
70300;HTU21D;57704;51.112;5.878;2023-03-01T13:56:55;14.85;26.07
70300;HTU21D;57704;51.112;5.878;2023-03-01T13:59:22;14.59;26.81
70300;HTU21D;57704;51.112;5.878;2023-03-01T14:01:57;14.43;26.65
70300;HTU21D;57704;51.112;5.878;2023-03-01T14:04:32;13.99;26.59
70300;HTU21D;57704;51.112;5.878;2023-03-01T14:09:49;13.63;28.32
70300;HTU21D;57704;51.112;5.878;2023-03-01T14:20:21;13.51;29.00
70300;HTU21D;57704;51.112;5.878;2023-03-01T14:22:52;13.35;29.09
70300;HTU21D;57704;51.112;5.878;2023-03-01T14:25:27;13.17;29.93
70300;HTU21D;57704;51.112;5.878;2023-03-01T14:28:21;13.08;29.97
70300;HTU21D;57704;51.112;5.878;2023-03-01T14:30:51;12.82;30.03
70300;HTU21D;57704;51.112;5.878;2023-03-01T14:36:04;12.62;31.25
70300;HTU21D;57704;51.112;5.878;2023-03-01T14:43:34;12.67;30.60
70300;HTU21D;57704;51.112;5.878;2023-03-01T14:46:01;12.57;31.18
70300;HTU21D;57704;51.112;5.878;2023-03-01T14:48:29;12.59;31.32
70300;HTU21D;57704;51.112;5.878;2023-03-01T14:50:57;12.48;30.83
70300;HTU21D;57704;51.112;5.878;2023-03-01T14:53:29;12.16;31.23
70300;HTU21D;57704;51.112;5.878;2023-03-01T14:56:00;11.97;31.50
70300;HTU21D;57704;51.112;5.878;2023-03-01T14:58:32;11.73;31.94
70300;HTU21D;57704;51.112;5.878;2023-03-01T15:01:03;11.63;31.99
70300;HTU21D;57704;51.112;5.878;2023-03-01T15:03:36;11.58;32.19
70300;HTU21D;57704;51.112;5.878;2023-03-01T15:06:07;11.45;31.96
70300;HTU21D;57704;51.112;5.878;2023-03-01T15:08:37;11.34;32.57
70300;HTU21D;57704;51.112;5.878;2023-03-01T15:13:41;11.47;32.62
70300;HTU21D;57704;51.112;5.878;2023-03-01T15:18:47;11.37;32.43
70300;HTU21D;57704;51.112;5.878;2023-03-01T15:21:22;11.20;32.59
70300;HTU21D;57704;51.112;5.878;2023-03-01T15:26:30;10.84;33.73
70300;HTU21D;57704;51.112;5.878;2023-03-01T15:28:59;10.80;33.74
70300;HTU21D;57704;51.112;5.878;2023-03-01T15:31:31;10.84;33.71
70300;HTU21D;57704;51.112;5.878;2023-03-01T15:36:44;10.70;34.38
70300;HTU21D;57704;51.112;5.878;2023-03-01T15:39:40;10.78;34.33
70300;HTU21D;57704;51.112;5.878;2023-03-01T15:42:35;10.83;34.50
70300;HTU21D;57704;51.112;5.878;2023-03-01T15:47:48;10.90;34.15
70300;HTU21D;57704;51.112;5.878;2023-03-01T15:50:27;10.84;34.68
70300;HTU21D;57704;51.112;5.878;2023-03-01T15:52:55;10.99;34.44
70300;HTU21D;57704;51.112;5.878;2023-03-01T15:55:28;10.81;34.60
70300;HTU21D;57704;51.112;5.878;2023-03-01T15:58:12;10.65;35.01
70300;HTU21D;57704;51.112;5.878;2023-03-01T16:00:39;10.60;34.96
70300;HTU21D;57704;51.112;5.878;2023-03-01T16:03:06;10.49;35.16
70300;HTU21D;57704;51.112;5.878;2023-03-01T16:05:35;10.44;35.36
70300;HTU21D;57704;51.112;5.878;2023-03-01T16:08:04;10.44;35.51
70300;HTU21D;57704;51.112;5.878;2023-03-01T16:10:32;10.37;35.52
70300;HTU21D;57704;51.112;5.878;2023-03-01T16:13:00;10.28;35.76
70300;HTU21D;57704;51.112;5.878;2023-03-01T16:15:30;10.19;35.68
70300;HTU21D;57704;51.112;5.878;2023-03-01T16:17:57;10.03;35.89
70300;HTU21D;57704;51.112;5.878;2023-03-01T16:20:26;9.79;36.36
70300;HTU21D;57704;51.112;5.878;2023-03-01T16:22:52;9.67;36.62
70300;HTU21D;57704;51.112;5.878;2023-03-01T16:25:21;9.53;36.89
70300;HTU21D;57704;51.112;5.878;2023-03-01T16:27:50;9.44;37.08
70300;HTU21D;57704;51.112;5.878;2023-03-01T16:30:19;9.40;37.37
70300;HTU21D;57704;51.112;5.878;2023-03-01T16:32:47;9.26;37.43
70300;HTU21D;57704;51.112;5.878;2023-03-01T16:35:17;9.17;37.62
70300;HTU21D;57704;51.112;5.878;2023-03-01T16:37:44;9.09;37.77
70300;HTU21D;57704;51.112;5.878;2023-03-01T16:42:48;8.93;38.11
70300;HTU21D;57704;51.112;5.878;2023-03-01T16:45:17;8.90;38.29
70300;HTU21D;57704;51.112;5.878;2023-03-01T16:47:44;8.80;38.33
70300;HTU21D;57704;51.112;5.878;2023-03-01T16:50:11;8.79;38.59
70300;HTU21D;57704;51.112;5.878;2023-03-01T16:52:38;8.72;38.57
70300;HTU21D;57704;51.112;5.878;2023-03-01T16:55:07;8.70;38.71
70300;HTU21D;57704;51.112;5.878;2023-03-01T16:57:37;8.57;38.88
70300;HTU21D;57704;51.112;5.878;2023-03-01T17:00:05;8.48;39.10
70300;HTU21D;57704;51.112;5.878;2023-03-01T17:02:36;8.49;39.21
70300;HTU21D;57704;51.112;5.878;2023-03-01T17:05:04;8.49;39.33
70300;HTU21D;57704;51.112;5.878;2023-03-01T17:07:32;8.51;39.45
70300;HTU21D;57704;51.112;5.878;2023-03-01T17:10:00;8.51;39.48
70300;HTU21D;57704;51.112;5.878;2023-03-01T17:12:26;8.46;39.58
70300;HTU21D;57704;51.112;5.878;2023-03-01T17:14:54;8.44;39.70
70300;HTU21D;57704;51.112;5.878;2023-03-01T17:17:21;8.43;39.84
70300;HTU21D;57704;51.112;5.878;2023-03-01T17:19:47;8.34;39.91
70300;HTU21D;57704;51.112;5.878;2023-03-01T17:22:14;8.27;40.26
70300;HTU21D;57704;51.112;5.878;2023-03-01T17:24:43;8.20;40.41
70300;HTU21D;57704;51.112;5.878;2023-03-01T17:27:11;8.12;40.60
70300;HTU21D;57704;51.112;5.878;2023-03-01T17:29:39;7.91;40.81
70300;HTU21D;57704;51.112;5.878;2023-03-01T17:32:07;7.78;41.11
70300;HTU21D;57704;51.112;5.878;2023-03-01T17:34:34;7.73;41.32
70300;HTU21D;57704;51.112;5.878;2023-03-01T17:37:00;7.70;41.41
70300;HTU21D;57704;51.112;5.878;2023-03-01T17:39:26;7.63;41.45
70300;HTU21D;57704;51.112;5.878;2023-03-01T17:41:56;7.57;41.59
70300;HTU21D;57704;51.112;5.878;2023-03-01T17:44:24;7.53;41.74
70300;HTU21D;57704;51.112;5.878;2023-03-01T17:46:50;7.50;41.80
70300;HTU21D;57704;51.112;5.878;2023-03-01T17:49:17;7.46;41.87
70300;HTU21D;57704;51.112;5.878;2023-03-01T17:51:43;7.46;41.87
70300;HTU21D;57704;51.112;5.878;2023-03-01T17:54:10;7.41;41.97
70300;HTU21D;57704;51.112;5.878;2023-03-01T17:56:37;7.34;42.10
70300;HTU21D;57704;51.112;5.878;2023-03-01T17:59:04;7.25;42.22
70300;HTU21D;57704;51.112;5.878;2023-03-01T18:01:32;7.23;42.36
70300;HTU21D;57704;51.112;5.878;2023-03-01T18:04:00;7.18;42.36
70300;HTU21D;57704;51.112;5.878;2023-03-01T18:06:27;7.13;42.51
70300;HTU21D;57704;51.112;5.878;2023-03-01T18:08:54;7.10;42.60
70300;HTU21D;57704;51.112;5.878;2023-03-01T18:11:23;7.03;42.64
70300;HTU21D;57704;51.112;5.878;2023-03-01T18:13:53;7.00;42.83
70300;HTU21D;57704;51.112;5.878;2023-03-01T18:16:21;6.98;42.84
70300;HTU21D;57704;51.112;5.878;2023-03-01T18:18:56;6.94;42.97